Time;durP1;ratioP1;P1;durP2;ratioP2;P2;SDS_P1;SDS_P2;PMS_P1;PMS_P2;Temp;Humidity;BMP_temperature;BMP_pressure;BME280_temperature;BME280_humidity;BME280_pressure;Samples;Min_cycle;Max_cycle;Signal;HPM_P1;HPM_P2
2022/06/25 05:48:18;;;;;;;39.13;27.15;;;;;;;20.66;69.92;100767.56;5072157;28;20383;-70
2022/06/25 05:50:44;;;;;;;43.10;27.45;;;;;;;20.65;69.41;100763.22;5072044;28;20342;-59
2022/06/25 05:53:09;;;;;;;39.00;27.17;;;;;;;20.66;69.61;100762.25;5072082;28;20042;-57
2022/06/25 05:55:34;;;;;;;42.60;28.35;;;;;;;20.69;69.23;100766.53;5072028;28;20078;-64
2022/06/25 05:58:02;;;;;;;38.67;26.90;;;;;;;20.68;70.08;100764.84;5071916;28;20024;-65
2022/06/25 06:00:30;;;;;;;43.53;26.67;;;;;;;20.70;72.72;100762.94;5071924;28;20434;-53
2022/06/25 06:02:58;;;;;;;39.88;27.23;;;;;;;20.70;72.97;100763.81;5070593;28;20039;-60
2022/06/25 06:05:23;;;;;;;39.08;27.23;;;;;;;20.72;72.67;100763.69;5071482;28;20029;-48
2022/06/25 06:07:51;;;;;;;40.15;28.13;;;;;;;20.71;73.39;100765.50;5059204;28;20017;-52
2022/06/25 06:10:17;;;;;;;40.70;27.42;;;;;;;20.69;72.62;100772.69;5071677;28;20112;-45
2022/06/25 06:12:42;;;;;;;39.83;27.98;;;;;;;20.69;71.85;100772.69;5071513;28;20442;-47
2022/06/25 06:15:11;;;;;;;39.80;26.38;;;;;;;20.72;71.10;100769.91;5071041;28;20032;-48
2022/06/25 06:17:37;;;;;;;39.55;27.20;;;;;;;20.71;70.22;100773.47;5074908;28;20017;-51
2022/06/25 06:20:03;;;;;;;36.58;25.67;;;;;;;20.72;70.47;100772.56;5072293;28;20021;-53
2022/06/25 06:22:33;;;;;;;34.78;24.88;;;;;;;21.21;69.60;100772.47;5071232;28;20128;-61
2022/06/25 06:24:58;;;;;;;33.83;23.85;;;;;;;21.25;68.91;100768.66;5073869;28;20114;-52
2022/06/25 06:27:26;;;;;;;30.63;23.60;;;;;;;21.26;69.31;100770.38;5074765;28;20024;-56
2022/06/25 06:29:52;;;;;;;33.10;24.02;;;;;;;21.31;69.08;100775.44;5072070;28;20111;-60
2022/06/25 06:32:19;;;;;;;30.30;24.10;;;;;;;21.28;68.69;100776.47;5071063;28;20029;-58
2022/06/25 06:34:45;;;;;;;31.10;23.55;;;;;;;21.32;68.28;100781.59;5069983;28;20047;-63
2022/06/25 06:37:13;;;;;;;32.67;24.48;;;;;;;21.34;68.51;100779.72;5070887;28;20450;-64
2022/06/25 06:39:40;;;;;;;31.08;22.75;;;;;;;21.28;68.20;100781.78;5070981;28;20417;-60
2022/06/25 06:42:08;;;;;;;28.65;22.45;;;;;;;21.29;68.25;100783.50;5070074;28;20097;-58
2022/06/25 06:44:36;;;;;;;31.50;22.98;;;;;;;21.31;68.08;100790.53;5070860;28;20036;-61
2022/06/25 06:47:01;;;;;;;28.92;22.85;;;;;;;21.31;68.54;100793.22;5070640;28;20351;-66
2022/06/25 06:49:27;;;;;;;27.30;21.23;;;;;;;21.33;68.47;100788.63;5070771;28;20043;-61
2022/06/25 06:51:52;;;;;;;29.73;22.65;;;;;;;21.33;68.18;100794.81;5070582;28;20080;-57
2022/06/25 06:54:17;;;;;;;25.58;20.67;;;;;;;21.33;68.07;100793.94;5069687;28;20029;-57
2022/06/25 06:56:43;;;;;;;23.52;20.13;;;;;;;21.35;68.22;100794.72;5070361;28;20028;-57
2022/06/25 06:59:09;;;;;;;24.08;19.92;;;;;;;21.37;68.51;100791.03;5060184;28;20029;-62
2022/06/25 07:01:39;;;;;;;28.48;21.50;;;;;;;21.39;68.62;100804.25;5056496;28;20036;-57
2022/06/25 07:04:07;;;;;;;26.73;20.80;;;;;;;21.36;67.85;100796.44;5057181;28;20029;-56
2022/06/25 07:06:32;;;;;;;27.63;21.30;;;;;;;21.40;68.68;100795.34;5057034;28;20039;-63
2022/06/25 07:09:03;;;;;;;23.77;20.95;;;;;;;21.41;68.74;100794.41;5057064;28;20025;-64
2022/06/25 07:11:28;;;;;;;23.70;19.80;;;;;;;21.43;68.08;100800.50;5057119;28;20035;-59
2022/06/25 07:13:57;;;;;;;22.00;18.42;;;;;;;21.41;67.89;100791.75;5057016;28;20064;-62
2022/06/25 07:16:24;;;;;;;27.23;19.67;;;;;;;21.43;68.99;100798.69;5056997;28;20017;-57
2022/06/25 07:18:55;;;;;;;21.75;19.42;;;;;;;21.45;68.75;100798.63;5039358;28;20047;-53
2022/06/25 07:21:20;;;;;;;19.70;17.65;;;;;;;21.41;68.52;100794.41;5039938;28;20032;-59
2022/06/25 07:23:46;;;;;;;22.05;18.92;;;;;;;21.36;68.68;100802.63;5056849;28;20021;-58
2022/06/25 07:26:13;;;;;;;20.00;17.90;;;;;;;21.33;68.47;100800.16;5055793;28;20029;-59
2022/06/25 07:28:39;;;;;;;21.80;18.70;;;;;;;21.34;68.34;100801.00;5072173;28;20033;-62
2022/06/25 07:31:04;;;;;;;21.02;18.50;;;;;;;21.35;68.91;100797.38;5056548;28;20035;-61
2022/06/25 07:33:29;;;;;;;20.13;17.88;;;;;;;21.34;68.77;100791.22;5039072;28;20039;-61
2022/06/25 07:35:56;;;;;;;22.10;17.77;;;;;;;21.39;68.90;100786.47;5056449;28;20021;-61
2022/06/25 07:38:21;;;;;;;18.30;16.30;;;;;;;21.39;69.24;100788.28;5056370;28;20029;-60
2022/06/25 07:40:47;;;;;;;19.27;17.20;;;;;;;21.38;68.73;100786.59;5056509;28;20073;-61
2022/06/25 07:43:15;;;;;;;20.83;18.05;;;;;;;21.41;69.27;100781.13;5056325;28;20021;-63
2022/06/25 07:45:40;;;;;;;19.60;17.52;;;;;;;21.48;69.21;100778.00;5055464;28;20027;-54
2022/06/25 07:48:06;;;;;;;22.10;18.52;;;;;;;21.47;69.20;100775.44;5055379;28;20523;-59
2022/06/25 07:53:15;;;;;;;21.30;17.98;;;;;;;21.52;69.24;100777.81;5056283;28;20039;-65
2022/06/25 07:55:40;;;;;;;21.38;17.98;;;;;;;21.58;69.54;100786.28;5056203;28;20025;-62
2022/06/25 07:58:06;;;;;;;18.92;16.85;;;;;;;21.59;69.26;100784.50;5056157;28;20024;-57
2022/06/25 08:00:31;;;;;;;20.73;17.90;;;;;;;21.58;69.26;100782.78;5057266;28;20042;-58
2022/06/25 08:03:01;;;;;;;19.00;17.02;;;;;;;21.58;68.62;100782.78;5059834;28;20017;-57
2022/06/25 08:05:27;;;;;;;19.00;17.00;;;;;;;21.53;68.80;100785.72;5057413;28;20111;-64
2022/06/25 08:07:52;;;;;;;20.15;16.67;;;;;;;21.52;69.90;100783.13;5054883;28;20497;-61
2022/06/25 08:10:17;;;;;;;19.42;17.33;;;;;;;21.52;70.22;100788.44;5046578;28;20036;-58
2022/06/25 08:12:45;;;;;;;19.55;17.55;;;;;;;21.52;70.01;100788.44;5042252;28;20036;-59
2022/06/25 08:15:10;;;;;;;23.00;18.98;;;;;;;21.53;69.99;100787.53;5040601;28;20017;-62
2022/06/25 08:17:36;;;;;;;20.55;18.20;;;;;;;21.64;69.28;100787.75;5035723;28;20029;-57
2022/06/25 08:20:02;;;;;;;20.35;17.58;;;;;;;21.65;68.98;100789.47;5035024;28;20026;-59
2022/06/25 08:22:28;;;;;;;19.48;17.50;;;;;;;21.68;68.64;100794.59;5035703;28;20034;-58
2022/06/25 08:24:58;;;;;;;19.77;17.67;;;;;;;21.71;69.11;100792.63;5034673;28;20022;-64
2022/06/25 08:27:27;;;;;;;20.30;18.20;;;;;;;21.74;69.37;100796.06;5035550;28;20017;-67
2022/06/25 08:29:52;;;;;;;20.65;18.45;;;;;;;21.70;69.28;100796.25;5035564;28;20451;-63
2022/06/25 08:32:18;;;;;;;21.60;19.38;;;;;;;21.74;69.52;100791.56;5035664;28;20029;-61
2022/06/25 08:34:43;;;;;;;23.25;19.52;;;;;;;21.76;69.83;100803.00;5035586;28;20031;-62
2022/06/25 08:37:11;;;;;;;26.70;20.85;;;;;;;21.80;69.74;100803.69;5035324;28;20033;-59
2022/06/25 08:39:37;;;;;;;24.50;19.60;;;;;;;21.79;69.34;100794.81;5034490;28;20069;-56
2022/06/25 08:42:08;;;;;;;22.70;20.40;;;;;;;21.81;69.74;100802.72;5035439;28;20021;-61
2022/06/25 08:44:38;;;;;;;21.70;19.33;;;;;;;21.79;69.62;100796.63;5035380;28;20128;-65
2022/06/25 08:47:03;;;;;;;;;;;;;;;21.78;70.22;100805.56;5035631;28;20033;-67
2022/06/25 08:49:28;;;;;;;24.35;20.73;;;;;;;21.86;70.18;100803.31;5017846;28;19940;-67
2022/06/25 08:51:54;;;;;;;28.58;21.63;;;;;;;21.86;70.19;100808.63;5017888;28;20029;-70
2022/06/25 08:54:20;;;;;;;21.77;19.48;;;;;;;21.87;70.27;100805.88;5017884;28;20055;-65
2022/06/25 08:56:49;;;;;;;22.23;19.92;;;;;;;21.85;70.17;100806.94;5034041;28;20335;-59
2022/06/25 08:59:14;;;;;;;22.15;19.75;;;;;;;21.83;70.72;100812.31;5034440;28;20040;-69
2022/06/25 09:01:40;;;;;;;22.80;20.45;;;;;;;21.85;71.08;100806.94;5019183;28;20025;-68
2022/06/25 09:04:05;;;;;;;23.40;20.23;;;;;;;21.91;70.95;100811.88;5035232;28;20021;-63
2022/06/25 09:06:33;;;;;;;26.45;20.25;;;;;;;21.78;70.17;100813.56;5043161;28;20431;-59
2022/06/25 09:09:12;;;;;;;21.05;19.00;;;;;;;21.75;70.48;100805.72;5053893;28;20455;-50
